Middlebury, VT

2:49 PM EST on December 04, 2016 (GMT -0500)
Middlebury College | | Change Station

Elev 392 ft 44.00 °N, 73.17 °W | Updated 2 seconds ago

Clear
Clear
35.2 °F
Feels Like 35 °F
N
3.0
Wind Variable Wind from NNE
Gusts 7.0 mph

Today
High -- | Low -- °F
--% Chance of Precip.
Yesterday
High -- | Low -- °F
Precip. -- in
Pressure 30.22 in
Visibility 10.0 miles
Clouds Clear
Windchill 35 °F
Dew Point 24 °F
Humidity 62%
Rainfall 0.00 in
Snow Depth Not available.
7:11 AM 4:14 PM
Waxing Crescent, 25% visible
METAR K6B0 041935Z AUTO 02004KT 10SM CLR 01/M07 A3022 RMK AO2 T00071071
Pressure 30.22 in
Visibility 10.0 miles
Clouds Clear
Windchill 35 °F
Dew Point 24 °F
Humidity 62%
Rainfall 0.00 in
Snow Depth Not available.
7:11 AM 4:14 PM
Waxing Crescent, 25% visible
METAR K6B0 041935Z AUTO 02004KT 10SM CLR 01/M07 A3022 RMK AO2 T00071071

10-Day Weather Forecast

Almanac

Astronomy

Dec. 04, 2016 Rise Set
Actual Time
Civil Twilight
Nautical Twilight
Astronomical Twilight
Moon
Length of Visible Light
Length of Day
Tomorrow will be .
, % of the Moon is Illuminated

Today's Extremes

State Highs State Lows

Community

WunderPhotos

Upload Photos

1,955,652 photos uploaded!

WunderBlog® & News

Nearby

Air Quality

  Air Quality AQ Index Pollutant
Not available.

Snow Depth

Station Depth Elevation

Earthquake Activity

City Distance Mag. Time & Date
Minimum magnitude displayed is 2.5.

Coastal Water Temperatures

Place Temperature

Stations

Nearby Weather Stations

Station Location Temp. Windchill Dew Point Humidity Wind Precip. Elev Updated Type
                   

Watches & Warnings

There are currently no watches in effect.